sensor_id;sensor_type;location;lat;lon;timestamp;P1;durP1;ratioP1;P2;durP2;ratioP2
25854;SDS011;13680;49.936;11.344;2023-07-24T00:01:51;10.23;;;4.65;;
25854;SDS011;13680;49.936;11.344;2023-07-24T00:04:16;9.48;;;3.95;;
25854;SDS011;13680;49.936;11.344;2023-07-24T00:06:42;7.15;;;3.95;;
25854;SDS011;13680;49.936;11.344;2023-07-24T00:09:07;7.03;;;3.95;;
25854;SDS011;13680;49.936;11.344;2023-07-24T00:11:32;5.68;;;3.53;;
25854;SDS011;13680;49.936;11.344;2023-07-24T00:13:58;6.80;;;4.18;;
25854;SDS011;13680;49.936;11.344;2023-07-24T00:16:23;6.45;;;3.72;;
25854;SDS011;13680;49.936;11.344;2023-07-24T00:18:48;7.28;;;4.43;;
25854;SDS011;13680;49.936;11.344;2023-07-24T00:21:13;9.30;;;4.90;;
25854;SDS011;13680;49.936;11.344;2023-07-24T00:23:39;8.73;;;4.30;;
25854;SDS011;13680;49.936;11.344;2023-07-24T00:26:04;6.80;;;4.43;;
25854;SDS011;13680;49.936;11.344;2023-07-24T00:28:29;9.25;;;4.10;;
25854;SDS011;13680;49.936;11.344;2023-07-24T00:30:55;8.18;;;4.32;;
25854;SDS011;13680;49.936;11.344;2023-07-24T00:33:21;6.90;;;4.00;;
25854;SDS011;13680;49.936;11.344;2023-07-24T00:35:46;6.13;;;3.85;;
25854;SDS011;13680;49.936;11.344;2023-07-24T00:38:12;5.07;;;3.72;;
25854;SDS011;13680;49.936;11.344;2023-07-24T00:40:37;6.90;;;4.35;;
25854;SDS011;13680;49.936;11.344;2023-07-24T00:43:02;7.03;;;3.95;;
25854;SDS011;13680;49.936;11.344;2023-07-24T00:45:28;6.18;;;4.20;;
25854;SDS011;13680;49.936;11.344;2023-07-24T00:47:53;7.45;;;4.57;;
25854;SDS011;13680;49.936;11.344;2023-07-24T00:50:19;7.30;;;3.92;;
25854;SDS011;13680;49.936;11.344;2023-07-24T00:52:44;6.05;;;4.03;;
25854;SDS011;13680;49.936;11.344;2023-07-24T00:55:10;7.68;;;4.47;;
25854;SDS011;13680;49.936;11.344;2023-07-24T00:57:38;6.43;;;4.10;;
25854;SDS011;13680;49.936;11.344;2023-07-24T01:00:03;9.27;;;4.60;;
25854;SDS011;13680;49.936;11.344;2023-07-24T01:02:29;7.82;;;4.13;;
25854;SDS011;13680;49.936;11.344;2023-07-24T01:04:55;5.72;;;4.38;;
25854;SDS011;13680;49.936;11.344;2023-07-24T01:07:20;6.38;;;4.28;;
25854;SDS011;13680;49.936;11.344;2023-07-24T01:09:46;7.72;;;4.28;;
25854;SDS011;13680;49.936;11.344;2023-07-24T01:14:58;9.65;;;4.63;;
25854;SDS011;13680;49.936;11.344;2023-07-24T01:17:33;7.18;;;4.70;;
25854;SDS011;13680;49.936;11.344;2023-07-24T01:20:04;6.78;;;4.18;;
25854;SDS011;13680;49.936;11.344;2023-07-24T01:22:38;6.80;;;3.83;;
25854;SDS011;13680;49.936;11.344;2023-07-24T01:25:14;8.25;;;4.57;;
25854;SDS011;13680;49.936;11.344;2023-07-24T01:27:47;7.43;;;4.50;;
25854;SDS011;13680;49.936;11.344;2023-07-24T01:30:16;8.00;;;4.97;;
25854;SDS011;13680;49.936;11.344;2023-07-24T01:32:43;7.15;;;4.15;;
25854;SDS011;13680;49.936;11.344;2023-07-24T01:35:08;7.32;;;4.43;;
25854;SDS011;13680;49.936;11.344;2023-07-24T01:37:34;6.68;;;4.25;;
25854;SDS011;13680;49.936;11.344;2023-07-24T01:40:00;7.82;;;4.72;;
25854;SDS011;13680;49.936;11.344;2023-07-24T01:42:27;8.40;;;4.93;;
25854;SDS011;13680;49.936;11.344;2023-07-24T01:44:54;7.05;;;4.78;;
25854;SDS011;13680;49.936;11.344;2023-07-24T01:47:20;7.85;;;5.07;;
25854;SDS011;13680;49.936;11.344;2023-07-24T01:49:46;8.23;;;4.60;;
25854;SDS011;13680;49.936;11.344;2023-07-24T01:52:12;7.63;;;4.75;;
25854;SDS011;13680;49.936;11.344;2023-07-24T01:54:37;6.88;;;4.40;;
25854;SDS011;13680;49.936;11.344;2023-07-24T01:57:03;7.60;;;4.80;;
25854;SDS011;13680;49.936;11.344;2023-07-24T01:59:28;8.90;;;4.90;;
25854;SDS011;13680;49.936;11.344;2023-07-24T02:01:54;9.75;;;4.82;;
25854;SDS011;13680;49.936;11.344;2023-07-24T02:04:19;8.93;;;4.82;;
25854;SDS011;13680;49.936;11.344;2023-07-24T02:06:47;8.30;;;5.20;;
25854;SDS011;13680;49.936;11.344;2023-07-24T02:09:13;8.82;;;5.15;;
25854;SDS011;13680;49.936;11.344;2023-07-24T02:11:38;9.80;;;5.07;;
25854;SDS011;13680;49.936;11.344;2023-07-24T02:14:04;8.68;;;4.82;;
25854;SDS011;13680;49.936;11.344;2023-07-24T02:16:29;8.38;;;5.32;;
25854;SDS011;13680;49.936;11.344;2023-07-24T02:18:54;8.20;;;5.03;;
25854;SDS011;13680;49.936;11.344;2023-07-24T02:21:20;8.00;;;4.95;;
25854;SDS011;13680;49.936;11.344;2023-07-24T02:23:45;8.30;;;5.00;;
25854;SDS011;13680;49.936;11.344;2023-07-24T02:26:10;9.63;;;6.15;;
25854;SDS011;13680;49.936;11.344;2023-07-24T02:28:35;9.10;;;5.35;;
25854;SDS011;13680;49.936;11.344;2023-07-24T02:31:01;10.75;;;5.10;;
25854;SDS011;13680;49.936;11.344;2023-07-24T02:33:26;8.48;;;5.00;;
25854;SDS011;13680;49.936;11.344;2023-07-24T02:35:51;8.50;;;5.40;;
25854;SDS011;13680;49.936;11.344;2023-07-24T02:38:17;8.52;;;4.88;;
25854;SDS011;13680;49.936;11.344;2023-07-24T02:40:43;7.55;;;4.75;;
25854;SDS011;13680;49.936;11.344;2023-07-24T02:43:09;10.25;;;5.57;;
25854;SDS011;13680;49.936;11.344;2023-07-24T02:45:34;10.68;;;5.55;;
25854;SDS011;13680;49.936;11.344;2023-07-24T02:48:00;8.02;;;4.72;;
25854;SDS011;13680;49.936;11.344;2023-07-24T02:50:26;8.65;;;5.28;;
25854;SDS011;13680;49.936;11.344;2023-07-24T02:52:52;9.70;;;5.07;;
25854;SDS011;13680;49.936;11.344;2023-07-24T02:55:17;9.60;;;5.00;;
25854;SDS011;13680;49.936;11.344;2023-07-24T02:57:43;7.20;;;5.15;;
25854;SDS011;13680;49.936;11.344;2023-07-24T03:00:08;8.32;;;4.75;;
25854;SDS011;13680;49.936;11.344;2023-07-24T03:02:34;9.80;;;5.38;;
25854;SDS011;13680;49.936;11.344;2023-07-24T03:04:59;9.88;;;5.75;;
25854;SDS011;13680;49.936;11.344;2023-07-24T03:07:25;8.13;;;5.30;;
25854;SDS011;13680;49.936;11.344;2023-07-24T03:09:50;10.95;;;6.07;;
25854;SDS011;13680;49.936;11.344;2023-07-24T03:12:15;10.07;;;6.07;;
25854;SDS011;13680;49.936;11.344;2023-07-24T03:14:41;10.20;;;5.20;;
25854;SDS011;13680;49.936;11.344;2023-07-24T03:17:06;8.75;;;5.13;;
25854;SDS011;13680;49.936;11.344;2023-07-24T03:19:31;10.45;;;5.50;;
25854;SDS011;13680;49.936;11.344;2023-07-24T03:21:57;8.90;;;5.43;;
25854;SDS011;13680;49.936;11.344;2023-07-24T03:24:22;10.60;;;5.18;;
25854;SDS011;13680;49.936;11.344;2023-07-24T03:26:48;8.73;;;5.07;;
25854;SDS011;13680;49.936;11.344;2023-07-24T03:29:13;11.90;;;5.43;;
25854;SDS011;13680;49.936;11.344;2023-07-24T03:31:38;9.55;;;5.50;;
25854;SDS011;13680;49.936;11.344;2023-07-24T03:34:03;10.10;;;5.25;;
25854;SDS011;13680;49.936;11.344;2023-07-24T03:36:29;9.27;;;6.20;;
25854;SDS011;13680;49.936;11.344;2023-07-24T03:38:54;12.73;;;6.28;;
25854;SDS011;13680;49.936;11.344;2023-07-24T03:41:19;9.90;;;5.75;;
25854;SDS011;13680;49.936;11.344;2023-07-24T03:43:44;11.10;;;5.32;;
25854;SDS011;13680;49.936;11.344;2023-07-24T03:46:10;9.43;;;5.25;;
25854;SDS011;13680;49.936;11.344;2023-07-24T03:48:35;10.57;;;5.20;;
25854;SDS011;13680;49.936;11.344;2023-07-24T03:51:01;8.52;;;5.35;;
25854;SDS011;13680;49.936;11.344;2023-07-24T03:53:27;11.13;;;6.20;;
25854;SDS011;13680;49.936;11.344;2023-07-24T03:55:53;10.55;;;6.10;;
25854;SDS011;13680;49.936;11.344;2023-07-24T03:58:19;11.98;;;6.15;;
25854;SDS011;13680;49.936;11.344;2023-07-24T04:00:44;12.52;;;6.78;;
25854;SDS011;13680;49.936;11.344;2023-07-24T04:03:10;12.48;;;6.20;;
25854;SDS011;13680;49.936;11.344;2023-07-24T04:05:35;13.25;;;6.28;;
25854;SDS011;13680;49.936;11.344;2023-07-24T04:08:01;12.68;;;6.32;;
25854;SDS011;13680;49.936;11.344;2023-07-24T04:10:26;11.77;;;7.10;;
25854;SDS011;13680;49.936;11.344;2023-07-24T04:12:52;10.77;;;6.47;;
25854;SDS011;13680;49.936;11.344;2023-07-24T04:15:18;15.68;;;7.10;;
25854;SDS011;13680;49.936;11.344;2023-07-24T04:17:43;12.82;;;7.00;;
25854;SDS011;13680;49.936;11.344;2023-07-24T04:20:09;12.45;;;7.57;;
25854;SDS011;13680;49.936;11.344;2023-07-24T04:22:35;10.80;;;6.30;;
25854;SDS011;13680;49.936;11.344;2023-07-24T04:25:00;11.27;;;6.60;;
25854;SDS011;13680;49.936;11.344;2023-07-24T04:27:25;11.50;;;7.28;;
25854;SDS011;13680;49.936;11.344;2023-07-24T04:29:51;12.38;;;6.93;;
25854;SDS011;13680;49.936;11.344;2023-07-24T04:32:16;11.10;;;6.50;;
25854;SDS011;13680;49.936;11.344;2023-07-24T04:34:41;12.98;;;6.63;;
25854;SDS011;13680;49.936;11.344;2023-07-24T04:37:06;9.90;;;5.80;;
25854;SDS011;13680;49.936;11.344;2023-07-24T04:39:32;13.63;;;6.57;;
25854;SDS011;13680;49.936;11.344;2023-07-24T04:41:58;11.55;;;6.45;;
25854;SDS011;13680;49.936;11.344;2023-07-24T04:44:24;12.38;;;6.43;;
25854;SDS011;13680;49.936;11.344;2023-07-24T04:46:49;11.88;;;6.32;;
25854;SDS011;13680;49.936;11.344;2023-07-24T04:49:15;11.73;;;7.20;;
25854;SDS011;13680;49.936;11.344;2023-07-24T04:51:40;15.07;;;7.50;;
25854;SDS011;13680;49.936;11.344;2023-07-24T04:54:06;11.30;;;6.10;;
25854;SDS011;13680;49.936;11.344;2023-07-24T04:56:31;11.68;;;6.70;;
25854;SDS011;13680;49.936;11.344;2023-07-24T04:58:56;15.80;;;7.57;;
25854;SDS011;13680;49.936;11.344;2023-07-24T05:01:22;11.85;;;6.35;;
25854;SDS011;13680;49.936;11.344;2023-07-24T05:03:47;10.63;;;6.53;;
25854;SDS011;13680;49.936;11.344;2023-07-24T05:06:12;11.88;;;7.35;;
25854;SDS011;13680;49.936;11.344;2023-07-24T05:08:37;19.90;;;8.63;;
25854;SDS011;13680;49.936;11.344;2023-07-24T05:11:03;17.20;;;7.35;;
25854;SDS011;13680;49.936;11.344;2023-07-24T05:13:28;16.48;;;8.05;;
25854;SDS011;13680;49.936;11.344;2023-07-24T05:15:53;347.33;;;23.75;;
25854;SDS011;13680;49.936;11.344;2023-07-24T05:18:18;15.88;;;9.05;;
25854;SDS011;13680;49.936;11.344;2023-07-24T05:20:44;18.05;;;9.82;;
25854;SDS011;13680;49.936;11.344;2023-07-24T05:23:11;16.60;;;8.20;;
25854;SDS011;13680;49.936;11.344;2023-07-24T05:25:37;16.20;;;9.07;;
25854;SDS011;13680;49.936;11.344;2023-07-24T05:28:02;16.60;;;8.77;;
25854;SDS011;13680;49.936;11.344;2023-07-24T05:30:28;15.05;;;8.40;;
25854;SDS011;13680;49.936;11.344;2023-07-24T05:32:53;15.02;;;8.05;;
25854;SDS011;13680;49.936;11.344;2023-07-24T05:35:18;13.90;;;8.55;;
25854;SDS011;13680;49.936;11.344;2023-07-24T05:37:44;14.20;;;7.80;;
25854;SDS011;13680;49.936;11.344;2023-07-24T05:40:09;12.15;;;8.35;;
25854;SDS011;13680;49.936;11.344;2023-07-24T05:42:34;14.30;;;8.50;;
25854;SDS011;13680;49.936;11.344;2023-07-24T05:45:06;16.85;;;8.52;;
25854;SDS011;13680;49.936;11.344;2023-07-24T05:47:32;16.15;;;8.85;;
25854;SDS011;13680;49.936;11.344;2023-07-24T05:49:58;18.75;;;9.82;;
25854;SDS011;13680;49.936;11.344;2023-07-24T05:52:23;16.65;;;10.05;;
25854;SDS011;13680;49.936;11.344;2023-07-24T05:54:48;20.50;;;10.32;;
25854;SDS011;13680;49.936;11.344;2023-07-24T05:57:13;15.30;;;9.15;;
25854;SDS011;13680;49.936;11.344;2023-07-24T05:59:39;16.58;;;9.55;;
25854;SDS011;13680;49.936;11.344;2023-07-24T06:02:04;17.83;;;9.20;;
25854;SDS011;13680;49.936;11.344;2023-07-24T06:04:30;15.45;;;9.00;;
25854;SDS011;13680;49.936;11.344;2023-07-24T06:06:55;19.05;;;9.32;;
25854;SDS011;13680;49.936;11.344;2023-07-24T06:09:21;15.13;;;8.48;;
25854;SDS011;13680;49.936;11.344;2023-07-24T06:11:46;18.98;;;9.52;;
25854;SDS011;13680;49.936;11.344;2023-07-24T06:14:11;15.13;;;8.85;;
25854;SDS011;13680;49.936;11.344;2023-07-24T06:16:36;17.67;;;9.02;;
25854;SDS011;13680;49.936;11.344;2023-07-24T06:19:02;15.07;;;8.82;;
25854;SDS011;13680;49.936;11.344;2023-07-24T06:21:27;15.98;;;8.70;;
25854;SDS011;13680;49.936;11.344;2023-07-24T06:23:52;14.82;;;7.63;;
25854;SDS011;13680;49.936;11.344;2023-07-24T06:26:18;14.07;;;8.02;;
25854;SDS011;13680;49.936;11.344;2023-07-24T06:28:43;14.30;;;8.30;;
25854;SDS011;13680;49.936;11.344;2023-07-24T06:31:08;12.45;;;7.68;;
25854;SDS011;13680;49.936;11.344;2023-07-24T06:33:33;13.20;;;7.78;;
25854;SDS011;13680;49.936;11.344;2023-07-24T06:35:59;13.15;;;8.18;;
25854;SDS011;13680;49.936;11.344;2023-07-24T06:38:24;16.00;;;7.93;;
25854;SDS011;13680;49.936;11.344;2023-07-24T06:40:49;13.63;;;8.02;;
25854;SDS011;13680;49.936;11.344;2023-07-24T06:43:15;15.05;;;7.93;;
25854;SDS011;13680;49.936;11.344;2023-07-24T06:45:41;14.52;;;8.43;;
25854;SDS011;13680;49.936;11.344;2023-07-24T06:48:06;18.60;;;8.98;;
25854;SDS011;13680;49.936;11.344;2023-07-24T06:50:31;19.13;;;8.07;;
25854;SDS011;13680;49.936;11.344;2023-07-24T06:52:56;14.02;;;8.63;;
25854;SDS011;13680;49.936;11.344;2023-07-24T06:55:22;13.20;;;7.93;;
25854;SDS011;13680;49.936;11.344;2023-07-24T06:57:47;13.85;;;8.00;;
25854;SDS011;13680;49.936;11.344;2023-07-24T07:00:13;14.05;;;8.48;;
25854;SDS011;13680;49.936;11.344;2023-07-24T07:02:38;17.55;;;8.68;;
25854;SDS011;13680;49.936;11.344;2023-07-24T07:05:04;15.10;;;8.25;;
25854;SDS011;13680;49.936;11.344;2023-07-24T07:07:30;15.60;;;8.13;;
25854;SDS011;13680;49.936;11.344;2023-07-24T07:09:55;14.77;;;7.78;;
25854;SDS011;13680;49.936;11.344;2023-07-24T07:12:21;12.32;;;7.47;;
25854;SDS011;13680;49.936;11.344;2023-07-24T07:14:46;16.73;;;8.75;;
25854;SDS011;13680;49.936;11.344;2023-07-24T07:17:11;14.63;;;7.00;;
25854;SDS011;13680;49.936;11.344;2023-07-24T07:19:37;14.77;;;8.25;;
25854;SDS011;13680;49.936;11.344;2023-07-24T07:22:02;13.50;;;7.93;;
25854;SDS011;13680;49.936;11.344;2023-07-24T07:24:28;11.55;;;7.68;;
25854;SDS011;13680;49.936;11.344;2023-07-24T07:26:53;13.43;;;8.43;;
25854;SDS011;13680;49.936;11.344;2023-07-24T07:29:18;11.85;;;7.40;;
25854;SDS011;13680;49.936;11.344;2023-07-24T07:31:43;12.38;;;7.53;;
25854;SDS011;13680;49.936;11.344;2023-07-24T07:34:09;16.23;;;8.50;;
25854;SDS011;13680;49.936;11.344;2023-07-24T07:36:34;15.05;;;7.90;;
25854;SDS011;13680;49.936;11.344;2023-07-24T07:38:59;13.65;;;8.07;;
25854;SDS011;13680;49.936;11.344;2023-07-24T07:41:24;12.48;;;7.75;;
25854;SDS011;13680;49.936;11.344;2023-07-24T07:43:50;15.45;;;8.23;;
25854;SDS011;13680;49.936;11.344;2023-07-24T07:46:15;12.73;;;8.18;;
25854;SDS011;13680;49.936;11.344;2023-07-24T07:48:40;15.45;;;7.93;;
25854;SDS011;13680;49.936;11.344;2023-07-24T07:51:06;12.80;;;8.15;;
25854;SDS011;13680;49.936;11.344;2023-07-24T07:53:32;13.55;;;8.70;;
25854;SDS011;13680;49.936;11.344;2023-07-24T07:55:57;13.95;;;8.38;;
25854;SDS011;13680;49.936;11.344;2023-07-24T07:58:24;17.10;;;7.70;;
25854;SDS011;13680;49.936;11.344;2023-07-24T08:00:50;11.73;;;7.65;;
25854;SDS011;13680;49.936;11.344;2023-07-24T08:03:15;12.18;;;8.02;;
25854;SDS011;13680;49.936;11.344;2023-07-24T08:05:40;13.82;;;7.60;;
25854;SDS011;13680;49.936;11.344;2023-07-24T08:08:06;12.63;;;7.07;;
25854;SDS011;13680;49.936;11.344;2023-07-24T08:10:31;11.57;;;7.95;;
25854;SDS011;13680;49.936;11.344;2023-07-24T08:12:56;14.13;;;8.27;;
25854;SDS011;13680;49.936;11.344;2023-07-24T08:15:22;10.18;;;7.18;;
25854;SDS011;13680;49.936;11.344;2023-07-24T08:17:47;12.25;;;7.85;;
25854;SDS011;13680;49.936;11.344;2023-07-24T08:20:12;12.82;;;7.53;;
25854;SDS011;13680;49.936;11.344;2023-07-24T08:22:38;13.00;;;8.23;;
25854;SDS011;13680;49.936;11.344;2023-07-24T08:25:03;12.35;;;7.55;;
25854;SDS011;13680;49.936;11.344;2023-07-24T08:27:29;11.20;;;7.30;;
25854;SDS011;13680;49.936;11.344;2023-07-24T08:29:54;13.93;;;7.78;;
25854;SDS011;13680;49.936;11.344;2023-07-24T08:32:20;11.70;;;7.30;;
25854;SDS011;13680;49.936;11.344;2023-07-24T08:34:45;12.63;;;7.10;;
25854;SDS011;13680;49.936;11.344;2023-07-24T08:37:13;11.45;;;7.50;;
25854;SDS011;13680;49.936;11.344;2023-07-24T08:39:39;13.13;;;7.90;;
25854;SDS011;13680;49.936;11.344;2023-07-24T08:42:13;13.77;;;8.15;;
25854;SDS011;13680;49.936;11.344;2023-07-24T08:44:39;12.30;;;7.90;;
25854;SDS011;13680;49.936;11.344;2023-07-24T08:47:05;13.75;;;8.18;;
25854;SDS011;13680;49.936;11.344;2023-07-24T08:49:34;16.38;;;8.18;;
25854;SDS011;13680;49.936;11.344;2023-07-24T08:52:01;12.20;;;7.53;;
25854;SDS011;13680;49.936;11.344;2023-07-24T08:54:27;12.05;;;7.72;;
25854;SDS011;13680;49.936;11.344;2023-07-24T08:56:53;14.60;;;7.53;;
25854;SDS011;13680;49.936;11.344;2023-07-24T08:59:18;16.50;;;8.57;;
25854;SDS011;13680;49.936;11.344;2023-07-24T09:01:44;10.27;;;7.30;;
25854;SDS011;13680;49.936;11.344;2023-07-24T09:04:09;15.25;;;8.32;;
25854;SDS011;13680;49.936;11.344;2023-07-24T09:06:35;13.38;;;8.13;;
25854;SDS011;13680;49.936;11.344;2023-07-24T09:09:02;12.18;;;8.25;;
25854;SDS011;13680;49.936;11.344;2023-07-24T09:11:28;13.65;;;8.23;;
25854;SDS011;13680;49.936;11.344;2023-07-24T09:13:53;12.93;;;8.38;;
25854;SDS011;13680;49.936;11.344;2023-07-24T09:16:22;13.68;;;8.18;;
25854;SDS011;13680;49.936;11.344;2023-07-24T09:18:49;14.52;;;8.40;;
25854;SDS011;13680;49.936;11.344;2023-07-24T09:21:26;12.32;;;7.60;;
25854;SDS011;13680;49.936;11.344;2023-07-24T09:23:52;13.18;;;8.25;;
25854;SDS011;13680;49.936;11.344;2023-07-24T09:26:17;12.07;;;7.78;;
25854;SDS011;13680;49.936;11.344;2023-07-24T09:28:50;14.07;;;7.93;;
25854;SDS011;13680;49.936;11.344;2023-07-24T09:31:17;14.07;;;7.93;;
25854;SDS011;13680;49.936;11.344;2023-07-24T09:33:42;13.38;;;7.47;;
25854;SDS011;13680;49.936;11.344;2023-07-24T09:36:11;11.50;;;7.72;;
25854;SDS011;13680;49.936;11.344;2023-07-24T09:38:38;14.73;;;7.70;;
25854;SDS011;13680;49.936;11.344;2023-07-24T09:41:03;13.63;;;8.02;;
25854;SDS011;13680;49.936;11.344;2023-07-24T09:43:30;13.82;;;7.88;;
25854;SDS011;13680;49.936;11.344;2023-07-24T09:45:56;11.82;;;7.20;;
25854;SDS011;13680;49.936;11.344;2023-07-24T09:48:24;12.68;;;7.57;;
25854;SDS011;13680;49.936;11.344;2023-07-24T09:50:54;12.63;;;8.18;;
25854;SDS011;13680;49.936;11.344;2023-07-24T09:56:09;14.07;;;7.80;;
25854;SDS011;13680;49.936;11.344;2023-07-24T09:58:38;11.50;;;7.53;;
25854;SDS011;13680;49.936;11.344;2023-07-24T10:01:06;14.82;;;8.60;;
25854;SDS011;13680;49.936;11.344;2023-07-24T10:03:38;17.80;;;9.10;;
25854;SDS011;13680;49.936;11.344;2023-07-24T10:06:11;14.80;;;8.40;;
25854;SDS011;13680;49.936;11.344;2023-07-24T10:08:39;14.88;;;9.13;;
25854;SDS011;13680;49.936;11.344;2023-07-24T10:11:05;15.10;;;9.30;;
25854;SDS011;13680;49.936;11.344;2023-07-24T10:13:32;18.98;;;9.10;;
25854;SDS011;13680;49.936;11.344;2023-07-24T10:16:01;13.75;;;8.95;;
25854;SDS011;13680;49.936;11.344;2023-07-24T10:18:28;16.95;;;9.05;;
25854;SDS011;13680;49.936;11.344;2023-07-24T10:21:01;15.77;;;9.20;;
25854;SDS011;13680;49.936;11.344;2023-07-24T10:23:28;16.02;;;8.75;;
25854;SDS011;13680;49.936;11.344;2023-07-24T10:25:54;13.35;;;9.05;;
25854;SDS011;13680;49.936;11.344;2023-07-24T10:28:29;17.38;;;8.75;;
25854;SDS011;13680;49.936;11.344;2023-07-24T10:31:03;15.10;;;9.10;;
25854;SDS011;13680;49.936;11.344;2023-07-24T10:33:36;17.42;;;9.38;;
25854;SDS011;13680;49.936;11.344;2023-07-24T10:36:09;18.77;;;10.15;;
25854;SDS011;13680;49.936;11.344;2023-07-24T10:38:42;17.48;;;9.43;;
25854;SDS011;13680;49.936;11.344;2023-07-24T10:41:09;13.85;;;9.27;;
25854;SDS011;13680;49.936;11.344;2023-07-24T10:43:41;13.90;;;8.85;;
25854;SDS011;13680;49.936;11.344;2023-07-24T10:46:11;16.80;;;9.60;;
25854;SDS011;13680;49.936;11.344;2023-07-24T10:48:37;15.00;;;9.07;;
25854;SDS011;13680;49.936;11.344;2023-07-24T10:51:07;16.98;;;9.70;;
25854;SDS011;13680;49.936;11.344;2023-07-24T10:53:34;15.57;;;9.55;;
25854;SDS011;13680;49.936;11.344;2023-07-24T10:56:00;16.17;;;9.70;;
25854;SDS011;13680;49.936;11.344;2023-07-24T10:58:26;15.50;;;9.25;;
25854;SDS011;13680;49.936;11.344;2023-07-24T11:00:52;13.57;;;9.70;;
25854;SDS011;13680;49.936;11.344;2023-07-24T11:03:17;17.42;;;10.07;;
25854;SDS011;13680;49.936;11.344;2023-07-24T11:05:43;16.33;;;10.35;;
25854;SDS011;13680;49.936;11.344;2023-07-24T11:08:16;15.32;;;9.77;;
25854;SDS011;13680;49.936;11.344;2023-07-24T11:10:50;13.95;;;9.55;;
25854;SDS011;13680;49.936;11.344;2023-07-24T11:13:16;16.52;;;9.65;;
25854;SDS011;13680;49.936;11.344;2023-07-24T11:15:43;19.42;;;10.30;;
25854;SDS011;13680;49.936;11.344;2023-07-24T11:18:08;13.10;;;9.13;;
25854;SDS011;13680;49.936;11.344;2023-07-24T11:20:48;17.02;;;9.27;;
25854;SDS011;13680;49.936;11.344;2023-07-24T11:23:18;14.25;;;9.25;;
25854;SDS011;13680;49.936;11.344;2023-07-24T11:25:44;15.50;;;9.02;;
25854;SDS011;13680;49.936;11.344;2023-07-24T11:28:10;15.75;;;8.88;;
25854;SDS011;13680;49.936;11.344;2023-07-24T11:30:37;14.27;;;8.60;;
25854;SDS011;13680;49.936;11.344;2023-07-24T11:33:03;12.90;;;8.68;;
25854;SDS011;13680;49.936;11.344;2023-07-24T11:35:30;13.25;;;8.48;;
25854;SDS011;13680;49.936;11.344;2023-07-24T11:37:56;13.30;;;8.77;;
25854;SDS011;13680;49.936;11.344;2023-07-24T11:40:29;12.55;;;8.10;;
25854;SDS011;13680;49.936;11.344;2023-07-24T11:42:56;13.17;;;8.40;;
25854;SDS011;13680;49.936;11.344;2023-07-24T11:45:21;12.20;;;8.18;;
25854;SDS011;13680;49.936;11.344;2023-07-24T11:47:48;14.35;;;8.27;;
25854;SDS011;13680;49.936;11.344;2023-07-24T11:50:15;10.80;;;7.53;;
25854;SDS011;13680;49.936;11.344;2023-07-24T11:52:42;11.00;;;7.18;;
25854;SDS011;13680;49.936;11.344;2023-07-24T11:55:13;11.68;;;7.60;;
25854;SDS011;13680;49.936;11.344;2023-07-24T11:57:40;16.35;;;7.15;;
25854;SDS011;13680;49.936;11.344;2023-07-24T12:00:06;14.02;;;6.85;;
25854;SDS011;13680;49.936;11.344;2023-07-24T12:02:43;12.88;;;7.43;;
25854;SDS011;13680;49.936;11.344;2023-07-24T12:05:09;11.65;;;7.38;;
25854;SDS011;13680;49.936;11.344;2023-07-24T12:07:35;11.48;;;7.32;;
25854;SDS011;13680;49.936;11.344;2023-07-24T12:10:04;12.05;;;7.53;;
25854;SDS011;13680;49.936;11.344;2023-07-24T12:12:47;11.60;;;7.82;;
25854;SDS011;13680;49.936;11.344;2023-07-24T12:15:13;13.40;;;7.57;;
25854;SDS011;13680;49.936;11.344;2023-07-24T12:17:39;13.27;;;7.25;;
25854;SDS011;13680;49.936;11.344;2023-07-24T12:20:06;9.93;;;6.63;;
25854;SDS011;13680;49.936;11.344;2023-07-24T12:22:36;10.48;;;6.90;;
25854;SDS011;13680;49.936;11.344;2023-07-24T12:25:03;8.93;;;5.90;;
25854;SDS011;13680;49.936;11.344;2023-07-24T12:27:29;10.45;;;6.20;;
25854;SDS011;13680;49.936;11.344;2023-07-24T12:29:55;9.68;;;6.47;;
25854;SDS011;13680;49.936;11.344;2023-07-24T12:32:20;10.38;;;6.25;;
25854;SDS011;13680;49.936;11.344;2023-07-24T12:34:47;10.13;;;5.88;;
25854;SDS011;13680;49.936;11.344;2023-07-24T12:37:13;11.70;;;6.00;;
25854;SDS011;13680;49.936;11.344;2023-07-24T12:39:38;11.00;;;6.57;;
25854;SDS011;13680;49.936;11.344;2023-07-24T12:42:04;8.35;;;5.90;;
25854;SDS011;13680;49.936;11.344;2023-07-24T12:44:31;9.80;;;6.53;;
25854;SDS011;13680;49.936;11.344;2023-07-24T12:46:56;10.15;;;6.20;;
25854;SDS011;13680;49.936;11.344;2023-07-24T12:49:22;11.50;;;6.20;;
25854;SDS011;13680;49.936;11.344;2023-07-24T12:51:47;12.27;;;6.45;;
25854;SDS011;13680;49.936;11.344;2023-07-24T12:54:12;8.93;;;6.43;;
25854;SDS011;13680;49.936;11.344;2023-07-24T12:56:37;8.98;;;6.10;;
25854;SDS011;13680;49.936;11.344;2023-07-24T12:59:04;12.60;;;6.32;;
25854;SDS011;13680;49.936;11.344;2023-07-24T13:01:29;13.55;;;7.53;;
25854;SDS011;13680;49.936;11.344;2023-07-24T13:03:54;9.55;;;6.80;;
25854;SDS011;13680;49.936;11.344;2023-07-24T13:06:20;12.00;;;7.05;;
25854;SDS011;13680;49.936;11.344;2023-07-24T13:08:46;9.68;;;6.82;;
25854;SDS011;13680;49.936;11.344;2023-07-24T13:11:11;12.18;;;7.20;;
25854;SDS011;13680;49.936;11.344;2023-07-24T13:13:36;11.05;;;6.60;;
25854;SDS011;13680;49.936;11.344;2023-07-24T13:16:02;10.57;;;6.45;;
25854;SDS011;13680;49.936;11.344;2023-07-24T13:18:28;12.05;;;7.15;;
25854;SDS011;13680;49.936;11.344;2023-07-24T13:20:54;10.77;;;7.10;;
25854;SDS011;13680;49.936;11.344;2023-07-24T13:23:22;10.57;;;6.90;;
25854;SDS011;13680;49.936;11.344;2023-07-24T13:25:48;11.85;;;7.57;;
25854;SDS011;13680;49.936;11.344;2023-07-24T13:28:15;16.38;;;7.50;;
25854;SDS011;13680;49.936;11.344;2023-07-24T13:30:40;10.63;;;7.50;;
25854;SDS011;13680;49.936;11.344;2023-07-24T13:33:06;9.53;;;6.70;;
25854;SDS011;13680;49.936;11.344;2023-07-24T13:35:31;12.35;;;7.63;;
25854;SDS011;13680;49.936;11.344;2023-07-24T13:37:56;13.45;;;7.85;;
25854;SDS011;13680;49.936;11.344;2023-07-24T13:40:22;12.27;;;7.22;;
25854;SDS011;13680;49.936;11.344;2023-07-24T13:42:47;13.25;;;7.90;;
25854;SDS011;13680;49.936;11.344;2023-07-24T13:45:12;10.35;;;7.55;;
25854;SDS011;13680;49.936;11.344;2023-07-24T13:47:37;12.48;;;7.55;;
25854;SDS011;13680;49.936;11.344;2023-07-24T13:50:03;13.90;;;8.05;;
25854;SDS011;13680;49.936;11.344;2023-07-24T13:52:29;10.88;;;6.97;;
25854;SDS011;13680;49.936;11.344;2023-07-24T13:54:54;17.38;;;7.93;;
25854;SDS011;13680;49.936;11.344;2023-07-24T13:57:20;11.02;;;7.18;;
25854;SDS011;13680;49.936;11.344;2023-07-24T13:59:45;11.85;;;7.43;;
25854;SDS011;13680;49.936;11.344;2023-07-24T14:02:10;10.70;;;7.22;;
25854;SDS011;13680;49.936;11.344;2023-07-24T14:04:37;12.00;;;7.13;;
25854;SDS011;13680;49.936;11.344;2023-07-24T14:07:03;10.98;;;7.90;;
25854;SDS011;13680;49.936;11.344;2023-07-24T14:09:28;11.80;;;6.57;;
25854;SDS011;13680;49.936;11.344;2023-07-24T14:11:53;11.57;;;6.68;;
25854;SDS011;13680;49.936;11.344;2023-07-24T14:14:18;13.18;;;7.03;;
25854;SDS011;13680;49.936;11.344;2023-07-24T14:16:44;13.52;;;6.20;;
25854;SDS011;13680;49.936;11.344;2023-07-24T14:19:09;8.85;;;6.38;;
25854;SDS011;13680;49.936;11.344;2023-07-24T14:21:34;9.98;;;6.32;;
25854;SDS011;13680;49.936;11.344;2023-07-24T14:24:00;11.75;;;6.65;;